createdAt,value
2023-04-23T00:01:08.606Z,8.17
2023-04-23T00:02:44.868Z,7.90
2023-04-23T00:04:19.137Z,7.47
2023-04-23T00:05:54.327Z,7.97
2023-04-23T00:07:27.738Z,7.30
2023-04-23T00:09:03.830Z,8.20
2023-04-23T00:10:36.971Z,7.83
2023-04-23T00:12:09.593Z,8.17
2023-04-23T00:13:44.307Z,8.13
2023-04-23T00:15:17.797Z,8.33
2023-04-23T00:16:50.990Z,8.43
2023-04-23T00:18:23.777Z,7.83
2023-04-23T00:19:56.465Z,8.83
2023-04-23T00:21:29.173Z,8.40
2023-04-23T00:23:02.148Z,8.70
2023-04-23T00:24:36.228Z,8.20
2023-04-23T00:26:08.976Z,9.07
2023-04-23T00:27:41.716Z,8.80
2023-04-23T00:29:15.771Z,9.23
2023-04-23T00:30:48.539Z,9.03
2023-04-23T00:32:22.513Z,9.60
2023-04-23T00:33:55.923Z,9.43
2023-04-23T00:35:28.664Z,9.20
2023-04-23T00:37:01.341Z,9.07
2023-04-23T00:38:34.116Z,9.17
2023-04-23T00:40:08.560Z,8.93
2023-04-23T00:41:42.438Z,8.50
2023-04-23T00:43:15.372Z,8.97
2023-04-23T00:44:51.384Z,9.40
2023-04-23T00:46:24.921Z,9.63
2023-04-23T00:47:57.761Z,9.00
2023-04-23T00:49:31.590Z,10.20
2023-04-23T00:51:05.263Z,9.70
2023-04-23T00:52:39.086Z,9.20
2023-04-23T00:54:12.552Z,9.53
2023-04-23T00:55:45.317Z,9.50
2023-04-23T00:57:18.144Z,9.07
2023-04-23T00:58:52.404Z,9.20
2023-04-23T01:00:26.944Z,9.40
2023-04-23T01:02:00.164Z,9.70
2023-04-23T01:03:36.295Z,9.23
2023-04-23T01:05:11.289Z,9.87
2023-04-23T01:06:44.583Z,9.57
2023-04-23T01:08:19.052Z,9.10
2023-04-23T01:09:51.448Z,9.17
2023-04-23T01:11:24.513Z,9.90
2023-04-23T01:12:57.231Z,9.33
2023-04-23T01:14:30.163Z,9.07
2023-04-23T01:16:04.215Z,9.00
2023-04-23T01:17:36.031Z,9.53
2023-04-23T01:19:10.666Z,9.70
2023-04-23T01:20:43.731Z,9.33
2023-04-23T01:22:17.293Z,9.73
2023-04-23T01:23:50.387Z,9.20
2023-04-23T01:25:23.193Z,9.40
2023-04-23T01:26:55.280Z,9.43
2023-04-23T01:28:28.225Z,8.93
2023-04-23T01:30:00.973Z,8.93
2023-04-23T01:31:33.246Z,8.77
2023-04-23T01:33:06.567Z,9.47
2023-04-23T01:34:39.755Z,9.13
2023-04-23T01:36:13.043Z,8.67
2023-04-23T01:37:48.683Z,8.90
2023-04-23T01:39:21.473Z,9.40
2023-04-23T01:40:54.198Z,9.17
2023-04-23T01:42:26.883Z,9.13
2023-04-23T01:44:00.533Z,9.63
2023-04-23T01:45:32.284Z,9.00
2023-04-23T01:47:06.938Z,8.53
2023-04-23T01:48:39.119Z,8.70
2023-04-23T01:50:12.074Z,8.80
2023-04-23T01:51:44.783Z,8.13
2023-04-23T01:53:19.330Z,8.60
2023-04-23T01:54:51.580Z,7.63
2023-04-23T01:56:27.950Z,8.87
2023-04-23T01:57:59.802Z,8.80
2023-04-23T01:59:32.501Z,8.30
2023-04-23T02:01:04.356Z,8.13
2023-04-23T02:02:37.142Z,8.03
2023-04-23T02:04:10.649Z,7.77
2023-04-23T02:05:45.046Z,8.13
2023-04-23T02:07:17.035Z,7.97
2023-04-23T02:08:51.648Z,7.40
2023-04-23T02:10:25.662Z,7.73
2023-04-23T02:11:58.507Z,8.17
2023-04-23T02:13:31.195Z,8.47
2023-04-23T02:15:04.393Z,8.73
2023-04-23T02:16:36.342Z,8.13
2023-04-23T02:18:09.113Z,8.23
2023-04-23T02:19:41.808Z,8.27
2023-04-23T02:21:13.555Z,7.90
2023-04-23T02:22:47.240Z,7.87
2023-04-23T02:24:21.262Z,7.50
2023-04-23T02:25:53.954Z,7.97
2023-04-23T02:27:27.209Z,8.63
2023-04-23T02:28:59.920Z,7.93
2023-04-23T02:30:31.736Z,7.83
2023-04-23T02:32:04.504Z,8.47
2023-04-23T02:33:36.266Z,7.93
2023-04-23T02:35:10.439Z,8.27
2023-04-23T02:36:43.169Z,8.33
2023-04-23T02:38:15.872Z,8.17
2023-04-23T02:39:49.001Z,8.27
2023-04-23T02:41:21.691Z,7.37
2023-04-23T02:42:54.591Z,8.23
2023-04-23T02:44:27.258Z,8.17
2023-04-23T02:45:59.955Z,8.40
2023-04-23T02:47:32.743Z,7.83
2023-04-23T02:49:06.728Z,8.17
2023-04-23T02:50:39.587Z,7.70
2023-04-23T02:52:12.415Z,7.20
2023-04-23T02:53:45.176Z,8.13
2023-04-23T02:55:19.436Z,7.17
2023-04-23T02:56:51.411Z,7.00
2023-04-23T02:58:24.147Z,8.20
2023-04-23T02:59:56.845Z,7.43
2023-04-23T03:01:28.685Z,7.87
2023-04-23T03:03:01.657Z,7.73
2023-04-23T03:04:34.506Z,7.70
2023-04-23T03:06:07.659Z,8.40
2023-04-23T03:07:40.587Z,8.47
2023-04-23T03:09:12.501Z,8.40
2023-04-23T03:10:46.539Z,8.00
2023-04-23T03:12:19.358Z,8.27
2023-04-23T03:13:52.040Z,8.77
2023-04-23T03:15:24.200Z,8.27
2023-04-23T03:16:56.996Z,8.30
2023-04-23T03:18:29.748Z,8.57
2023-04-23T03:20:02.930Z,9.00
2023-04-23T03:21:35.741Z,8.63
2023-04-23T03:23:08.563Z,8.40
2023-04-23T03:24:41.476Z,8.83
2023-04-23T03:26:15.754Z,8.73
2023-04-23T03:27:48.439Z,8.60
2023-04-23T03:29:21.172Z,8.50
2023-04-23T03:30:53.904Z,8.67
2023-04-23T03:32:25.721Z,8.47
2023-04-23T03:33:58.469Z,7.90
2023-04-23T03:35:31.389Z,8.10
2023-04-23T03:37:04.107Z,8.63
2023-04-23T03:38:36.803Z,8.53
2023-04-23T03:40:09.941Z,7.40
2023-04-23T03:41:43.976Z,7.93
2023-04-23T03:43:16.693Z,7.60
2023-04-23T03:44:49.383Z,7.73
2023-04-23T03:46:21.171Z,7.63
2023-04-23T03:47:53.933Z,7.93
2023-04-23T03:49:26.462Z,7.37
2023-04-23T03:50:59.414Z,7.97
2023-04-23T03:52:32.123Z,7.77
2023-04-23T03:54:05.179Z,8.23
2023-04-23T03:55:37.922Z,7.87
2023-04-23T03:57:12.230Z,8.10
2023-04-23T03:58:45.034Z,8.00
2023-04-23T04:00:18.260Z,7.60
2023-04-23T04:01:50.961Z,7.67
2023-04-23T04:03:23.860Z,7.67
2023-04-23T04:04:56.826Z,7.60
2023-04-23T04:06:29.732Z,7.63
2023-04-23T04:08:01.758Z,8.27
2023-04-23T04:09:34.461Z,8.37
2023-04-23T04:11:08.178Z,8.27
2023-04-23T04:12:44.852Z,7.33
2023-04-23T04:14:17.559Z,8.00
2023-04-23T04:15:50.462Z,7.70
2023-04-23T04:17:23.244Z,7.00
2023-04-23T04:18:56.667Z,8.17
2023-04-23T04:20:28.695Z,7.50
2023-04-23T04:22:03.211Z,7.00
2023-04-23T04:23:36.322Z,7.60
2023-04-23T04:25:08.737Z,7.60
2023-04-23T04:26:42.001Z,7.27
2023-04-23T04:28:16.340Z,7.97
2023-04-23T04:29:48.321Z,6.93
2023-04-23T04:31:21.991Z,7.03
2023-04-23T04:32:54.862Z,6.97
2023-04-23T04:34:27.845Z,6.80
2023-04-23T04:36:01.623Z,7.33
2023-04-23T04:37:34.314Z,6.73
2023-04-23T04:39:07.781Z,6.47
2023-04-23T04:40:40.780Z,7.00
2023-04-23T04:42:13.632Z,7.10
2023-04-23T04:43:48.262Z,6.80
2023-04-23T04:45:21.020Z,6.73
2023-04-23T04:46:52.844Z,6.13
2023-04-23T04:48:25.581Z,6.40
2023-04-23T04:49:59.687Z,6.70
2023-04-23T04:51:31.469Z,6.63
2023-04-23T04:53:04.221Z,6.20
2023-04-23T04:54:36.917Z,6.23
2023-04-23T04:56:10.084Z,6.27
2023-04-23T04:57:42.913Z,6.53
2023-04-23T04:59:16.938Z,6.80
2023-04-23T05:00:51.769Z,6.07
2023-04-23T05:02:24.632Z,7.17
2023-04-23T05:03:57.997Z,6.73
2023-04-23T05:05:29.969Z,7.30
2023-04-23T05:07:02.677Z,6.20
2023-04-23T05:08:35.469Z,6.63
2023-04-23T05:10:08.879Z,6.37
2023-04-23T05:11:41.849Z,6.70
2023-04-23T05:13:14.649Z,7.57
2023-04-23T05:14:48.671Z,6.60
2023-04-23T05:16:21.607Z,6.80
2023-04-23T05:17:54.766Z,6.53
2023-04-23T05:19:27.494Z,7.00
2023-04-23T05:21:00.336Z,6.60
2023-04-23T05:22:33.020Z,6.80
2023-04-23T05:24:06.075Z,7.00
2023-04-23T05:25:38.849Z,7.07
2023-04-23T05:27:11.549Z,7.03
2023-04-23T05:28:44.236Z,7.13
2023-04-23T05:30:18.655Z,6.77
2023-04-23T05:31:51.850Z,7.20
2023-04-23T05:33:26.997Z,6.63
2023-04-23T05:35:02.711Z,6.77
2023-04-23T05:36:35.412Z,6.50
2023-04-23T05:38:08.177Z,6.73
2023-04-23T05:39:41.860Z,6.37
2023-04-23T05:41:16.585Z,7.10
2023-04-23T05:42:49.284Z,6.60
2023-04-23T05:44:22.010Z,6.27
2023-04-23T05:45:56.093Z,6.93
2023-04-23T05:47:29.553Z,6.57
2023-04-23T05:49:02.280Z,6.60
2023-04-23T05:50:34.039Z,7.03
2023-04-23T05:52:06.810Z,6.70
2023-04-23T05:53:39.524Z,6.97
2023-04-23T05:55:12.288Z,7.23
2023-04-23T05:56:45.787Z,6.80
2023-04-23T05:58:19.204Z,7.07
2023-04-23T05:59:51.919Z,6.77
2023-04-23T06:01:26.064Z,7.33
2023-04-23T06:02:58.947Z,7.40
2023-04-23T06:04:31.934Z,7.47
2023-04-23T06:06:05.088Z,7.77
2023-04-23T06:07:36.858Z,7.90
2023-04-23T06:09:09.568Z,8.33
2023-04-23T06:10:42.422Z,7.33
2023-04-23T06:12:15.416Z,7.93
2023-04-23T06:13:48.261Z,8.07
2023-04-23T06:15:21.383Z,8.23
2023-04-23T06:16:55.441Z,7.33
2023-04-23T06:18:28.152Z,7.67
2023-04-23T06:20:00.893Z,7.60
2023-04-23T06:21:33.676Z,7.77
2023-04-23T06:23:06.495Z,8.43
2023-04-23T06:24:39.486Z,7.97
2023-04-23T06:26:12.430Z,7.90
2023-04-23T06:27:45.207Z,8.03
2023-04-23T06:29:17.899Z,8.10
2023-04-23T06:30:51.029Z,7.80
2023-04-23T06:32:25.182Z,8.10
2023-04-23T06:33:57.953Z,7.43
2023-04-23T06:35:31.448Z,7.80
2023-04-23T06:37:04.124Z,9.07
2023-04-23T06:38:36.820Z,7.67
2023-04-23T06:40:10.314Z,7.53
2023-04-23T06:41:43.063Z,7.67
2023-04-23T06:43:15.805Z,8.07
2023-04-23T06:44:48.482Z,7.30
2023-04-23T06:46:21.195Z,7.93
2023-04-23T06:47:55.282Z,7.10
2023-04-23T06:49:27.038Z,7.87
2023-04-23T06:50:59.834Z,7.90
2023-04-23T06:52:32.579Z,7.93
2023-04-23T06:54:05.574Z,7.33
2023-04-23T06:55:38.230Z,7.10
2023-04-23T06:57:10.289Z,7.33
2023-04-23T06:58:42.972Z,7.03
2023-04-23T07:00:16.209Z,7.50
2023-04-23T07:01:49.095Z,7.73
2023-04-23T07:03:23.241Z,7.83
2023-04-23T07:14:14.961Z,7.17
2023-04-23T07:15:48.880Z,7.90
2023-04-23T07:17:21.639Z,6.70
2023-04-23T07:18:55.824Z,6.83
2023-04-23T07:20:28.515Z,6.63
2023-04-23T07:22:01.213Z,6.20
2023-04-23T07:23:33.910Z,5.83
2023-04-23T07:25:08.536Z,5.50
2023-04-23T07:26:41.311Z,5.70
2023-04-23T07:28:14.159Z,5.97
2023-04-23T07:29:46.866Z,5.13
2023-04-23T07:31:20.592Z,5.67
2023-04-23T07:32:53.467Z,5.87
2023-04-23T07:34:27.559Z,5.20
2023-04-23T07:36:00.240Z,5.50
2023-04-23T07:37:32.929Z,5.47
2023-04-23T07:39:06.129Z,5.20
2023-04-23T07:40:39.043Z,4.60
2023-04-23T07:42:11.722Z,4.43
2023-04-23T07:43:44.491Z,4.50
2023-04-23T07:45:17.190Z,4.70
2023-04-23T07:46:49.867Z,4.47
2023-04-23T07:48:22.610Z,4.63
2023-04-23T07:49:56.668Z,4.40
2023-04-23T07:51:29.463Z,4.73
2023-04-23T07:53:02.200Z,4.50
2023-04-23T07:54:35.025Z,3.57
2023-04-23T07:56:07.954Z,4.00
2023-04-23T07:57:40.721Z,3.50
2023-04-23T07:59:13.408Z,3.97
2023-04-23T08:00:46.246Z,3.87
2023-04-23T08:02:23.608Z,3.70
2023-04-23T08:03:59.327Z,3.50
2023-04-23T08:05:33.749Z,3.50
2023-04-23T08:07:06.447Z,3.63
2023-04-23T08:08:39.616Z,3.70
2023-04-23T08:10:12.362Z,3.43
2023-04-23T08:11:45.235Z,3.50
2023-04-23T08:13:18.012Z,3.50
2023-04-23T08:14:50.874Z,3.37
2023-04-23T08:16:23.693Z,3.50
2023-04-23T08:17:56.620Z,3.70
2023-04-23T08:19:32.178Z,3.43
2023-04-23T08:21:06.613Z,3.47
2023-04-23T08:22:39.307Z,3.30
2023-04-23T08:24:11.999Z,2.97
2023-04-23T08:25:44.720Z,3.03
2023-04-23T08:27:17.432Z,3.40
2023-04-23T08:28:50.662Z,3.03
2023-04-23T08:30:23.464Z,3.30
2023-04-23T08:31:56.365Z,3.30
2023-04-23T08:33:29.152Z,3.20
2023-04-23T08:35:01.832Z,3.40
2023-04-23T08:36:35.908Z,3.27
2023-04-23T08:38:08.657Z,3.33
2023-04-23T08:39:41.348Z,3.00
2023-04-23T08:41:15.802Z,3.07
2023-04-23T08:42:51.664Z,3.23
2023-04-23T08:44:26.167Z,3.43
2023-04-23T08:46:04.172Z,3.30
2023-04-23T08:47:40.382Z,3.10
2023-04-23T08:49:16.652Z,2.90
2023-04-23T08:50:49.638Z,3.03
2023-04-23T08:52:27.287Z,3.10
2023-04-23T08:54:02.547Z,3.10
2023-04-23T08:55:36.627Z,2.87
2023-04-23T08:57:10.477Z,2.90
2023-04-23T08:58:43.991Z,3.00
2023-04-23T09:00:18.948Z,2.90
2023-04-23T09:01:52.135Z,3.10
2023-04-23T09:03:26.204Z,2.87
2023-04-23T09:04:59.360Z,2.73
2023-04-23T09:06:32.996Z,2.70
2023-04-23T09:08:08.555Z,2.70
2023-04-23T09:09:41.969Z,2.90
2023-04-23T09:11:16.489Z,3.00
2023-04-23T09:12:49.253Z,2.70
2023-04-23T09:14:24.814Z,2.67
2023-04-23T09:15:57.576Z,2.70
2023-04-23T09:17:30.870Z,2.60
2023-04-23T09:19:03.785Z,2.57
2023-04-23T09:20:37.153Z,2.70
2023-04-23T09:22:10.039Z,2.90
2023-04-23T09:23:44.491Z,3.10
2023-04-23T09:25:19.121Z,2.90
2023-04-23T09:26:53.025Z,2.97
2023-04-23T09:28:35.809Z,3.00
2023-04-23T09:30:11.177Z,2.80
2023-04-23T09:31:44.094Z,2.57
2023-04-23T09:33:18.167Z,3.27
2023-04-23T09:34:57.544Z,2.87
2023-04-23T09:36:33.667Z,2.90
2023-04-23T09:38:10.413Z,3.10
2023-04-23T09:39:44.691Z,2.83
2023-04-23T09:41:24.828Z,2.60
2023-04-23T09:42:57.501Z,2.40
2023-04-23T09:44:32.242Z,2.90
2023-04-23T09:46:05.796Z,2.63
2023-04-23T09:47:40.501Z,2.73
2023-04-23T09:49:14.440Z,2.90
2023-04-23T09:50:47.748Z,2.87
2023-04-23T09:52:22.609Z,2.80
2023-04-23T09:53:55.346Z,3.00
2023-04-23T09:55:35.494Z,2.73
2023-04-23T09:57:09.138Z,2.70
2023-04-23T09:58:42.520Z,2.90
2023-04-23T10:00:19.150Z,3.10
2023-04-23T10:01:52.688Z,2.70
2023-04-23T10:03:28.578Z,3.03
2023-04-23T10:05:14.122Z,2.73
2023-04-23T10:08:32.743Z,2.70
2023-04-23T10:10:06.684Z,2.73
2023-04-23T10:11:42.484Z,3.10
2023-04-23T10:13:16.226Z,2.60
2023-04-23T10:14:53.795Z,2.67
2023-04-23T10:16:32.848Z,3.00
2023-04-23T10:18:12.646Z,2.90
2023-04-23T10:19:45.960Z,2.60
2023-04-23T10:21:20.311Z,2.90
2023-04-23T10:22:56.322Z,2.90
2023-04-23T10:24:32.802Z,3.13
2023-04-23T10:26:07.029Z,3.00
2023-04-23T10:27:52.972Z,3.00
2023-04-23T10:29:29.020Z,2.90
2023-04-23T10:31:03.756Z,2.77
2023-04-23T10:32:36.984Z,2.90
2023-04-23T10:34:11.412Z,2.70
2023-04-23T10:35:45.023Z,2.97
2023-04-23T10:37:19.662Z,2.90
2023-04-23T10:38:58.365Z,3.23
2023-04-23T10:40:34.753Z,2.93
2023-04-23T10:42:08.044Z,3.03
2023-04-23T10:43:41.189Z,2.73
2023-04-23T10:45:23.238Z,2.70
2023-04-23T10:47:01.674Z,2.30
2023-04-23T10:48:52.648Z,2.30
2023-04-23T10:50:27.472Z,2.40
2023-04-23T10:53:37.575Z,2.33
2023-04-23T10:55:18.431Z,2.33
2023-04-23T10:56:59.901Z,2.60
2023-04-23T10:58:51.695Z,2.47
2023-04-23T11:00:24.876Z,2.20
2023-04-23T11:01:59.778Z,2.73
2023-04-23T11:03:42.564Z,2.80
2023-04-23T11:05:17.132Z,2.33
2023-04-23T11:06:57.819Z,2.30
2023-04-23T11:08:32.233Z,2.47
2023-04-23T11:10:13.810Z,2.50
2023-04-23T11:11:46.595Z,2.33
2023-04-23T11:13:24.843Z,2.57
2023-04-23T11:15:00.212Z,3.00
2023-04-23T11:16:32.987Z,3.50
2023-04-23T11:18:05.903Z,3.63
2023-04-23T11:19:39.389Z,3.60
2023-04-23T11:21:12.214Z,3.60
2023-04-23T11:22:46.134Z,3.40
2023-04-23T11:24:18.880Z,3.63
2023-04-23T11:25:51.685Z,3.40
2023-04-23T11:27:24.390Z,3.30
2023-04-23T11:28:57.182Z,3.20
2023-04-23T11:30:32.702Z,3.87
2023-04-23T11:32:10.323Z,3.23
2023-04-23T11:33:43.054Z,3.40
2023-04-23T11:35:16.747Z,3.43
2023-04-23T11:36:52.396Z,3.50
2023-04-23T11:38:25.699Z,3.23
2023-04-23T11:39:58.908Z,3.43
2023-04-23T11:41:31.688Z,3.20
2023-04-23T11:43:04.378Z,3.50
2023-04-23T11:44:39.382Z,3.40
2023-04-23T11:46:15.753Z,3.07
2023-04-23T11:47:50.611Z,2.87
2023-04-23T11:49:23.363Z,2.90
2023-04-23T11:50:56.230Z,2.90
2023-04-23T11:52:28.949Z,2.93
2023-04-23T11:54:05.450Z,3.70
2023-04-23T11:55:43.701Z,3.70
2023-04-23T11:57:16.418Z,3.50
2023-04-23T11:58:49.118Z,3.30
2023-04-23T12:00:24.005Z,3.43
2023-04-23T12:01:59.804Z,3.40
2023-04-23T12:03:32.685Z,3.23
2023-04-23T12:05:08.192Z,3.23
2023-04-23T12:06:43.476Z,3.40
2023-04-23T12:08:17.689Z,3.47
2023-04-23T12:09:50.409Z,2.50
2023-04-23T12:11:25.156Z,2.50
2023-04-23T12:12:59.612Z,2.40
2023-04-23T12:14:33.347Z,2.40
2023-04-23T12:16:08.617Z,2.50
2023-04-23T12:17:48.786Z,2.10
2023-04-23T12:19:26.350Z,2.37
2023-04-23T12:21:06.214Z,2.10
2023-04-23T12:22:38.902Z,2.00
2023-04-23T12:24:11.634Z,2.30
2023-04-23T12:25:44.347Z,2.30
2023-04-23T12:27:20.102Z,2.40
2023-04-23T12:28:54.904Z,2.53
2023-04-23T12:30:29.790Z,2.27
2023-04-23T12:32:03.626Z,2.50
2023-04-23T12:33:37.648Z,2.00
2023-04-23T12:35:11.356Z,2.07
2023-04-23T12:36:47.318Z,2.10
2023-04-23T12:38:24.465Z,2.13
2023-04-23T12:39:59.307Z,2.30
2023-04-23T12:41:33.504Z,2.30
2023-04-23T12:43:06.376Z,2.47
2023-04-23T12:44:39.780Z,2.30
2023-04-23T12:46:12.499Z,2.23
2023-04-23T12:47:45.333Z,2.10
2023-04-23T12:49:19.558Z,1.93
2023-04-23T12:50:52.281Z,2.00
2023-04-23T12:52:25.002Z,2.23
2023-04-23T12:53:58.022Z,2.20
2023-04-23T12:55:30.736Z,1.87
2023-04-23T12:57:04.077Z,2.03
2023-04-23T12:58:36.994Z,2.00
2023-04-23T13:00:11.131Z,1.70
2023-04-23T13:01:43.943Z,1.87
2023-04-23T13:03:17.453Z,1.73
2023-04-23T13:04:51.547Z,2.03
2023-04-23T13:06:26.195Z,1.70
2023-04-23T13:07:58.902Z,1.90
2023-04-23T13:09:31.620Z,1.90
2023-04-23T13:11:04.574Z,1.87
2023-04-23T13:12:37.370Z,2.00
2023-04-23T13:14:10.662Z,2.07
2023-04-23T13:15:43.467Z,2.00
2023-04-23T13:17:16.182Z,2.20
2023-04-23T13:18:51.387Z,2.30
2023-04-23T13:20:26.334Z,2.27
2023-04-23T13:21:59.072Z,2.20
2023-04-23T13:23:31.743Z,1.97
2023-04-23T13:25:04.950Z,1.77
2023-04-23T13:26:37.662Z,2.00
2023-04-23T13:28:10.478Z,1.90
2023-04-23T13:29:43.355Z,2.03
2023-04-23T13:31:16.353Z,2.30
2023-04-23T13:32:49.115Z,2.20
2023-04-23T13:34:21.900Z,2.20
2023-04-23T13:35:56.447Z,1.93
2023-04-23T13:37:31.347Z,1.90
2023-04-23T13:39:04.250Z,2.20
2023-04-23T13:40:37.923Z,1.90
2023-04-23T13:42:10.718Z,1.97
2023-04-23T13:43:43.440Z,1.70
2023-04-23T13:45:16.647Z,1.80
2023-04-23T13:46:49.624Z,1.93
2023-04-23T13:48:23.130Z,1.97
2023-04-23T13:49:56.330Z,2.10
2023-04-23T13:51:35.683Z,1.93
2023-04-23T13:53:09.688Z,1.60
2023-04-23T13:54:42.425Z,1.70
2023-04-23T13:56:15.367Z,1.90
2023-04-23T13:57:48.273Z,1.90
2023-04-23T13:59:21.060Z,1.87
2023-04-23T14:00:54.279Z,1.93
2023-04-23T14:02:27.173Z,2.03
2023-04-23T14:03:59.985Z,1.90
2023-04-23T14:05:32.960Z,1.93
2023-04-23T14:07:06.995Z,1.80
2023-04-23T14:08:40.234Z,1.77
2023-04-23T14:10:13.184Z,1.80
2023-04-23T14:11:46.075Z,1.70
2023-04-23T14:13:18.773Z,1.60
2023-04-23T14:14:50.694Z,1.80
2023-04-23T14:16:23.454Z,1.80
2023-04-23T14:17:56.293Z,1.63
2023-04-23T14:19:30.348Z,1.80
2023-04-23T14:21:03.033Z,1.93
2023-04-23T14:22:37.399Z,1.77
2023-04-23T14:24:17.629Z,2.07
2023-04-23T14:25:58.643Z,1.87
2023-04-23T14:27:35.118Z,1.80
2023-04-23T14:29:11.330Z,1.53
2023-04-23T14:30:44.027Z,1.80
2023-04-23T14:32:16.767Z,1.60
2023-04-23T14:33:49.445Z,1.73
2023-04-23T14:35:35.703Z,1.80
2023-04-23T14:37:14.673Z,1.90
2023-04-23T14:38:48.857Z,1.67
2023-04-23T14:40:21.653Z,1.77
2023-04-23T14:41:54.577Z,1.57
2023-04-23T14:43:27.327Z,2.00
2023-04-23T14:45:00.466Z,1.70
2023-04-23T14:46:33.306Z,1.60
2023-04-23T14:48:06.156Z,1.63
2023-04-23T14:49:40.479Z,1.90
2023-04-23T14:51:13.435Z,1.83
2023-04-23T14:52:49.393Z,1.63
2023-04-23T14:54:24.019Z,2.00
2023-04-23T14:55:56.720Z,1.90
2023-04-23T14:57:29.412Z,1.80
2023-04-23T14:59:02.591Z,1.70
2023-04-23T15:00:35.383Z,1.90
2023-04-23T15:02:09.161Z,1.70
2023-04-23T15:03:42.127Z,1.70
2023-04-23T15:05:15.743Z,1.60
2023-04-23T15:06:48.506Z,1.90
2023-04-23T15:08:21.730Z,1.73
2023-04-23T15:09:55.742Z,1.60
2023-04-23T15:11:28.485Z,1.60
2023-04-23T15:13:08.826Z,1.70
2023-04-23T15:14:45.186Z,1.70
2023-04-23T15:16:46.668Z,1.77
2023-04-23T15:18:20.681Z,1.47
2023-04-23T15:19:54.349Z,1.73
2023-04-23T15:21:27.127Z,1.60
2023-04-23T15:22:59.844Z,1.60
2023-04-23T15:24:32.553Z,1.53
2023-04-23T15:26:05.754Z,1.30
2023-04-23T15:27:38.511Z,1.63
2023-04-23T15:29:13.218Z,1.57
2023-04-23T15:30:47.532Z,1.47
2023-04-23T15:32:20.235Z,1.33
2023-04-23T15:33:52.953Z,1.40
2023-04-23T15:35:26.665Z,1.40
2023-04-23T15:36:59.408Z,1.37
2023-04-23T15:38:32.392Z,1.23
2023-04-23T15:40:05.873Z,1.43
2023-04-23T15:41:41.367Z,1.40
2023-04-23T15:43:15.068Z,1.30
2023-04-23T15:44:50.361Z,1.50
2023-04-23T15:46:23.052Z,1.90
2023-04-23T15:47:55.832Z,1.60
2023-04-23T15:49:28.674Z,1.40
2023-04-23T15:51:01.350Z,1.67
2023-04-23T15:52:34.104Z,1.67
2023-04-23T15:54:08.224Z,2.50
2023-04-23T15:55:41.457Z,5.00
2023-04-23T15:57:15.529Z,3.80
2023-04-23T15:58:49.187Z,3.80
2023-04-23T16:00:21.991Z,2.10
2023-04-23T16:01:54.751Z,2.00
2023-04-23T16:03:27.593Z,2.57
2023-04-23T16:05:00.441Z,2.47
2023-04-23T16:06:33.189Z,1.60
2023-04-23T16:08:05.971Z,1.67
2023-04-23T16:09:39.617Z,1.70
2023-04-23T16:11:14.626Z,1.80
2023-04-23T16:12:48.775Z,1.40
2023-04-23T16:14:21.578Z,1.40
2023-04-23T16:15:54.350Z,1.33
2023-04-23T16:17:28.752Z,1.20
2023-04-23T16:19:02.511Z,1.10
2023-04-23T16:20:35.976Z,1.20
2023-04-23T16:22:08.665Z,1.20
2023-04-23T16:23:41.638Z,1.30
2023-04-23T16:25:14.362Z,1.20
2023-04-23T16:26:47.063Z,1.20
2023-04-23T16:28:21.349Z,1.20
2023-04-23T16:29:54.043Z,1.20
2023-04-23T16:31:26.756Z,1.50
2023-04-23T16:32:59.611Z,1.20
2023-04-23T16:34:32.442Z,1.10
2023-04-23T16:36:05.806Z,1.40
2023-04-23T16:37:38.753Z,1.30
2023-04-23T16:39:11.868Z,1.20
2023-04-23T16:40:47.086Z,1.20
2023-04-23T16:42:19.817Z,0.93
2023-04-23T16:43:53.886Z,1.30
2023-04-23T16:45:26.614Z,1.30
2023-04-23T16:46:59.840Z,1.60
2023-04-23T16:48:32.610Z,1.37
2023-04-23T16:50:05.844Z,1.20
2023-04-23T16:51:38.598Z,1.10
2023-04-23T16:53:11.330Z,1.20
2023-04-23T16:54:44.341Z,1.27
2023-04-23T16:56:17.424Z,1.43
2023-04-23T16:57:50.273Z,1.10
2023-04-23T16:59:24.481Z,1.03
2023-04-23T17:00:57.160Z,1.10
2023-04-23T17:02:30.024Z,0.87
2023-04-23T17:04:03.064Z,1.00
2023-04-23T17:05:39.338Z,1.17
2023-04-23T17:07:12.054Z,0.70
2023-04-23T17:08:44.887Z,1.00
2023-04-23T17:10:18.756Z,1.10
2023-04-23T17:11:51.655Z,0.90
2023-04-23T17:13:24.446Z,1.07
2023-04-23T17:14:58.474Z,1.10
2023-04-23T17:16:31.422Z,0.80
2023-04-23T17:18:04.282Z,1.00
2023-04-23T17:19:37.051Z,0.90
2023-04-23T17:21:09.908Z,0.87
2023-04-23T17:22:42.689Z,1.00
2023-04-23T17:24:15.582Z,1.00
2023-04-23T17:25:48.282Z,0.90
2023-04-23T17:27:21.007Z,0.97
2023-04-23T17:28:53.750Z,0.80
2023-04-23T17:30:27.790Z,0.93
2023-04-23T17:32:01.098Z,0.97
2023-04-23T17:33:34.350Z,0.80
2023-04-23T17:35:10.589Z,1.00
2023-04-23T17:36:43.628Z,0.77
2023-04-23T17:38:20.354Z,0.87
2023-04-23T17:39:53.064Z,0.90
2023-04-23T17:41:25.879Z,0.90
2023-04-23T17:42:58.598Z,1.03
2023-04-23T17:44:31.296Z,0.80
2023-04-23T17:46:05.778Z,0.90
2023-04-23T17:47:40.653Z,0.93
2023-04-23T17:49:13.365Z,1.00
2023-04-23T17:50:46.902Z,0.90
2023-04-23T17:52:19.620Z,0.90
2023-04-23T17:53:52.340Z,1.10
2023-04-23T17:55:25.021Z,1.30
2023-04-23T17:56:57.753Z,1.30
2023-04-23T17:58:30.698Z,1.63
2023-04-23T18:00:09.523Z,1.00
2023-04-23T18:01:43.862Z,1.20
2023-04-23T18:03:18.253Z,1.27
2023-04-23T18:04:51.127Z,1.13
2023-04-23T18:06:23.888Z,1.30
2023-04-23T18:07:56.993Z,1.10
2023-04-23T18:09:29.793Z,0.97
2023-04-23T18:11:02.518Z,1.10
2023-04-23T18:12:35.452Z,1.00
2023-04-23T18:14:08.217Z,1.30
2023-04-23T18:15:42.005Z,1.13
2023-04-23T18:17:17.347Z,1.00
2023-04-23T18:18:50.204Z,1.00
2023-04-23T18:20:24.892Z,1.17
2023-04-23T18:22:01.984Z,1.00
2023-04-23T18:23:35.790Z,1.10
2023-04-23T18:25:10.278Z,1.10
2023-04-23T18:26:42.968Z,1.10
2023-04-23T18:28:15.959Z,1.33
2023-04-23T18:29:48.650Z,1.10
2023-04-23T18:31:21.452Z,1.33
2023-04-23T18:33:08.578Z,1.20
2023-04-23T18:34:42.360Z,1.10
2023-04-23T18:36:22.100Z,1.10
2023-04-23T18:38:02.315Z,1.00
2023-04-23T18:39:35.089Z,1.40
2023-04-23T18:41:07.777Z,1.13
2023-04-23T18:42:40.568Z,1.20
2023-04-23T18:44:14.155Z,1.10
2023-04-23T18:45:46.930Z,1.23
2023-04-23T18:47:20.233Z,1.13
2023-04-23T18:48:59.628Z,1.50
2023-04-23T18:50:38.546Z,1.20
2023-04-23T18:52:11.287Z,1.27
2023-04-23T18:53:44.105Z,1.47
2023-04-23T18:55:16.925Z,1.20
2023-04-23T18:56:50.768Z,1.07
2023-04-23T18:58:23.528Z,1.10
2023-04-23T18:59:56.339Z,1.20
2023-04-23T19:01:29.138Z,1.20
2023-04-23T19:03:06.742Z,1.10
2023-04-23T19:04:46.373Z,1.00
2023-04-23T19:06:20.007Z,1.30
2023-04-23T19:07:52.798Z,1.13
2023-04-23T19:09:25.573Z,1.20
2023-04-23T19:10:58.514Z,1.30
2023-04-23T19:12:31.206Z,1.20
2023-04-23T19:14:03.937Z,1.30
2023-04-23T19:15:36.755Z,1.43
2023-04-23T19:17:09.528Z,1.30
2023-04-23T19:18:42.256Z,2.03
2023-04-23T19:20:16.627Z,1.23
2023-04-23T19:21:49.306Z,1.53
2023-04-23T19:23:21.987Z,1.40
2023-04-23T19:24:54.696Z,1.30
2023-04-23T19:26:27.444Z,1.50
2023-04-23T19:28:00.196Z,1.40
2023-04-23T19:29:32.947Z,1.27
2023-04-23T19:31:05.730Z,1.57
2023-04-23T19:32:38.476Z,1.40
2023-04-23T19:34:13.333Z,1.57
2023-04-23T19:35:47.734Z,1.43
2023-04-23T19:37:20.441Z,1.30
2023-04-23T19:38:53.548Z,1.63
2023-04-23T19:40:26.264Z,1.40
2023-04-23T19:41:58.967Z,1.50
2023-04-23T19:43:31.655Z,1.30
2023-04-23T19:45:04.672Z,1.20
2023-04-23T19:46:37.366Z,1.50
2023-04-23T19:48:10.377Z,1.27
2023-04-23T19:49:43.284Z,1.40
2023-04-23T19:51:18.883Z,1.33
2023-04-23T19:52:51.615Z,1.40
2023-04-23T19:54:24.813Z,1.20
2023-04-23T19:55:57.570Z,1.40
2023-04-23T19:57:30.288Z,1.40
2023-04-23T19:59:03.144Z,1.10
2023-04-23T20:00:39.474Z,1.20
2023-04-23T20:02:13.021Z,1.20
2023-04-23T20:03:47.754Z,1.07
2023-04-23T20:05:21.946Z,1.30
2023-04-23T20:06:55.983Z,1.30
2023-04-23T20:08:29.546Z,1.30
2023-04-23T20:10:02.339Z,1.30
2023-04-23T20:11:35.791Z,1.13
2023-04-23T20:13:08.723Z,1.40
2023-04-23T20:14:42.505Z,1.20
2023-04-23T20:16:15.212Z,1.20
2023-04-23T20:17:47.987Z,1.30
2023-04-23T20:19:20.763Z,1.20
2023-04-23T20:20:53.817Z,1.20
2023-04-23T20:22:27.989Z,1.30
2023-04-23T20:24:00.769Z,1.37
2023-04-23T20:25:33.531Z,1.30
2023-04-23T20:27:06.880Z,1.20
2023-04-23T20:28:39.613Z,1.23
2023-04-23T20:30:14.731Z,1.33
2023-04-23T20:31:49.352Z,1.10
2023-04-23T20:33:22.586Z,1.20
2023-04-23T20:34:55.455Z,1.20
2023-04-23T20:36:31.459Z,1.30
2023-04-23T20:38:05.537Z,1.40
2023-04-23T20:39:38.256Z,1.20
2023-04-23T20:41:11.019Z,1.20
2023-04-23T20:42:43.772Z,1.10
2023-04-23T20:44:16.470Z,1.50
2023-04-23T20:45:49.518Z,1.27
2023-04-23T20:47:22.270Z,1.10
2023-04-23T20:48:55.422Z,1.00
2023-04-23T20:50:28.212Z,1.20
2023-04-23T20:52:00.980Z,1.20
2023-04-23T20:53:35.059Z,1.03
2023-04-23T20:55:08.776Z,1.10
2023-04-23T20:56:41.478Z,1.00
2023-04-23T20:58:14.282Z,1.00
2023-04-23T20:59:46.971Z,1.10
2023-04-23T21:01:19.833Z,1.20